Aviation Digital Data Service (ADDS)

Output produced by METARs form (1348 UTC 26 November 2014)
found at http://aviationweather.gov/adds/metars/
 
KHUL 261141Z 2612/2712 27005KT P6SM BKN250 
     FM261900 34004KT P6SM SCT025 OVC050 
     FM262100 01006KT 3SM -SN SCT015 OVC025 
     FM262230 02007KT 1SM -SN VV008